createdAt,value
2023-01-10T00:00:48.096Z,55.63
2023-01-10T00:02:21.279Z,62.10
2023-01-10T00:03:54.629Z,51.65
2023-01-10T00:05:27.722Z,47.08
2023-01-10T00:07:01.184Z,51.75
2023-01-10T00:08:33.360Z,51.20
2023-01-10T00:10:07.186Z,55.67
2023-01-10T00:11:57.501Z,57.70
2023-01-10T00:13:29.905Z,57.60
2023-01-10T00:15:04.524Z,57.65
2023-01-10T00:16:39.635Z,55.67
2023-01-10T00:18:13.194Z,60.03
2023-01-10T00:19:46.356Z,64.53
2023-01-10T00:21:19.737Z,64.63
2023-01-10T00:22:52.936Z,60.42
2023-01-10T00:24:26.074Z,64.32
2023-01-10T00:25:59.171Z,70.45
2023-01-10T00:27:31.464Z,60.15
2023-01-10T00:29:07.175Z,66.78
2023-01-10T00:30:42.980Z,68.28
2023-01-10T00:32:16.117Z,64.47
2023-01-10T00:33:49.308Z,69.18
2023-01-10T00:35:22.613Z,64.97
2023-01-10T00:36:55.703Z,65.80
2023-01-10T00:38:30.500Z,62.45
2023-01-10T00:40:04.038Z,65.82
2023-01-10T00:42:03.265Z,65.65
2023-01-10T00:43:53.778Z,66.15
2023-01-10T00:45:27.651Z,66.47
2023-01-10T00:47:02.223Z,60.83
2023-01-10T00:48:35.389Z,70.28
2023-01-10T00:50:10.424Z,65.85
2023-01-10T00:51:42.676Z,68.88
2023-01-10T00:53:16.255Z,66.68
2023-01-10T00:54:49.639Z,69.15
2023-01-10T00:56:22.804Z,74.05
2023-01-10T00:57:56.141Z,73.63
2023-01-10T00:59:29.481Z,78.22
2023-01-10T01:01:03.006Z,72.72
2023-01-10T01:02:37.749Z,76.13
2023-01-10T01:04:11.073Z,81.47
2023-01-10T01:05:44.741Z,71.97
2023-01-10T01:07:18.489Z,74.93
2023-01-10T01:08:51.603Z,73.45
2023-01-10T01:10:26.440Z,65.55
2023-01-10T01:11:59.782Z,77.72
2023-01-10T01:13:33.231Z,82.70
2023-01-10T01:15:07.384Z,76.05
2023-01-10T01:16:40.555Z,78.15
2023-01-10T01:18:16.484Z,77.13
2023-01-10T01:19:50.015Z,86.10
2023-01-10T01:21:28.066Z,73.03
2023-01-10T01:23:01.604Z,73.05
2023-01-10T01:24:34.721Z,76.25
2023-01-10T01:26:07.977Z,81.57
2023-01-10T01:27:41.151Z,77.53
2023-01-10T01:29:14.755Z,80.25
2023-01-10T01:30:48.286Z,78.22
2023-01-10T01:32:22.133Z,72.18
2023-01-10T01:33:56.758Z,62.03
2023-01-10T01:35:29.998Z,58.70
2023-01-10T01:37:03.166Z,61.15
2023-01-10T01:38:35.448Z,61.95
2023-01-10T01:40:11.131Z,58.72
2023-01-10T01:42:01.124Z,63.60
2023-01-10T01:43:59.953Z,66.65
2023-01-10T01:45:41.124Z,68.20
2023-01-10T01:47:19.816Z,66.70
2023-01-10T01:48:53.091Z,69.60
2023-01-10T01:50:33.168Z,64.50
2023-01-10T01:52:11.541Z,62.72
2023-01-10T01:53:49.820Z,64.15
2023-01-10T01:55:22.832Z,65.93
2023-01-10T01:57:00.734Z,53.33
2023-01-10T01:58:40.851Z,59.22
2023-01-10T02:00:15.666Z,65.65
2023-01-10T02:01:52.919Z,73.10
2023-01-10T02:03:26.635Z,62.15
2023-01-10T02:05:03.864Z,72.45
2023-01-10T02:06:39.271Z,71.97
2023-01-10T02:08:12.638Z,70.65
2023-01-10T02:09:51.250Z,72.70
2023-01-10T02:11:24.328Z,67.90
2023-01-10T02:13:02.602Z,79.47
2023-01-10T02:14:37.498Z,75.03
2023-01-10T02:16:10.927Z,82.65
2023-01-10T02:17:44.150Z,82.68
2023-01-10T02:19:25.928Z,79.40
2023-01-10T02:21:21.672Z,81.32
2023-01-10T02:23:24.469Z,70.75
2023-01-10T02:25:38.254Z,74.72
2023-01-10T02:27:24.867Z,69.60
2023-01-10T02:29:32.252Z,68.30
2023-01-10T02:31:31.025Z,72.93
2023-01-10T02:33:13.067Z,67.18
2023-01-10T02:35:00.570Z,72.97
2023-01-10T02:36:43.902Z,64.65
2023-01-10T02:38:29.906Z,58.08
2023-01-10T02:40:09.108Z,58.70
2023-01-10T02:41:51.672Z,60.70
2023-01-10T02:43:30.387Z,60.50
2023-01-10T02:45:08.584Z,69.22
2023-01-10T02:46:42.601Z,61.15
2023-01-10T02:48:17.268Z,64.55
2023-01-10T02:49:52.020Z,63.13
2023-01-10T02:51:28.382Z,63.28
2023-01-10T02:53:05.390Z,67.22
2023-01-10T02:54:39.191Z,65.72
2023-01-10T02:56:57.365Z,65.95
2023-01-10T02:58:43.219Z,73.50
2023-01-10T03:00:42.252Z,76.63
2023-01-10T03:02:26.393Z,74.40
2023-01-10T03:04:12.663Z,72.80
2023-01-10T03:05:59.499Z,73.00
2023-01-10T03:07:39.391Z,73.65
2023-01-10T03:09:22.005Z,63.65
2023-01-10T03:10:59.077Z,74.70
2023-01-10T03:12:38.894Z,81.13
2023-01-10T03:14:18.336Z,75.55
2023-01-10T03:15:53.861Z,74.82
2023-01-10T03:17:29.806Z,64.43
2023-01-10T03:19:08.688Z,68.05
2023-01-10T03:20:46.262Z,70.32
2023-01-10T03:22:19.678Z,70.15
2023-01-10T03:23:55.850Z,78.88
2023-01-10T03:25:34.253Z,82.47
2023-01-10T03:27:12.350Z,81.78
2023-01-10T03:28:51.103Z,75.18
2023-01-10T03:30:29.731Z,78.97
2023-01-10T03:32:07.314Z,78.07
2023-01-10T03:33:41.424Z,81.32
2023-01-10T03:35:17.325Z,84.25
2023-01-10T03:36:56.738Z,68.00
2023-01-10T03:38:37.294Z,78.05
2023-01-10T03:40:18.311Z,73.93
2023-01-10T03:42:00.437Z,79.22
2023-01-10T03:43:59.769Z,74.72
2023-01-10T03:45:40.942Z,71.18
2023-01-10T03:47:23.628Z,87.15
2023-01-10T03:48:59.272Z,79.95
2023-01-10T03:50:35.256Z,85.32
2023-01-10T03:52:12.603Z,81.50
2023-01-10T03:53:46.204Z,96.43
2023-01-10T03:55:22.277Z,99.13
2023-01-10T03:56:55.654Z,102.80
2023-01-10T03:58:30.545Z,95.93
2023-01-10T04:00:04.483Z,98.93
2023-01-10T04:01:37.691Z,111.93
2023-01-10T04:03:11.191Z,103.40
2023-01-10T04:04:44.749Z,86.60
2023-01-10T04:06:20.258Z,86.30
2023-01-10T04:07:53.571Z,107.05
2023-01-10T04:09:26.777Z,97.35
2023-01-10T04:11:01.882Z,113.00
2023-01-10T04:12:35.341Z,91.05
2023-01-10T04:14:07.552Z,85.18
2023-01-10T04:15:43.990Z,86.28
2023-01-10T04:17:18.701Z,81.95
2023-01-10T04:18:51.923Z,80.65
2023-01-10T04:20:26.949Z,77.10
2023-01-10T04:22:02.111Z,82.20
2023-01-10T04:23:35.473Z,74.57
2023-01-10T04:25:12.289Z,82.80
2023-01-10T04:26:45.589Z,71.80
2023-01-10T04:28:19.176Z,78.00
2023-01-10T04:29:54.953Z,84.38
2023-01-10T04:31:29.262Z,81.78
2023-01-10T04:33:02.394Z,137.32
2023-01-10T04:34:35.843Z,135.63
2023-01-10T04:36:09.476Z,83.45
2023-01-10T04:37:44.773Z,77.00
2023-01-10T04:39:18.385Z,68.07
2023-01-10T04:40:54.541Z,70.90
2023-01-10T04:42:26.695Z,68.72
2023-01-10T04:44:02.332Z,69.18
2023-01-10T04:45:35.557Z,70.43
2023-01-10T04:47:09.127Z,59.45
2023-01-10T04:48:42.498Z,61.63
2023-01-10T04:50:15.797Z,72.20
2023-01-10T04:51:49.065Z,70.70
2023-01-10T04:53:24.435Z,79.97
2023-01-10T04:54:57.599Z,115.40
2023-01-10T04:56:30.901Z,109.18
2023-01-10T04:58:04.719Z,102.65
2023-01-10T04:59:38.180Z,94.80
2023-01-10T05:01:12.508Z,93.72
2023-01-10T05:02:45.861Z,97.38
2023-01-10T05:04:20.887Z,94.80
2023-01-10T05:05:54.291Z,92.57
2023-01-10T05:07:27.411Z,89.45
2023-01-10T05:09:02.515Z,82.75
2023-01-10T05:10:35.676Z,85.22
2023-01-10T05:12:09.146Z,102.28
2023-01-10T05:13:42.479Z,88.80
2023-01-10T05:15:16.106Z,79.13
2023-01-10T05:16:49.265Z,82.65
2023-01-10T05:18:22.805Z,89.00
2023-01-10T05:19:56.004Z,107.40
2023-01-10T05:21:29.198Z,102.07
2023-01-10T05:23:02.263Z,97.53
2023-01-10T05:24:37.011Z,89.90
2023-01-10T05:26:11.033Z,113.05
2023-01-10T05:27:44.559Z,133.60
2023-01-10T05:29:17.831Z,132.90
2023-01-10T05:30:51.704Z,135.75
2023-01-10T05:32:24.896Z,128.80
2023-01-10T05:33:58.022Z,127.60
2023-01-10T05:35:31.195Z,125.32
2023-01-10T05:37:04.816Z,115.60
2023-01-10T05:38:37.972Z,109.90
2023-01-10T05:40:13.551Z,126.05
2023-01-10T05:41:46.741Z,108.38
2023-01-10T05:43:20.003Z,91.63
2023-01-10T05:44:53.158Z,110.35
2023-01-10T05:46:26.301Z,129.10
2023-01-10T05:47:59.433Z,110.50
2023-01-10T05:49:34.191Z,98.63
2023-01-10T05:51:08.236Z,93.78
2023-01-10T05:52:41.481Z,102.03
2023-01-10T05:54:14.647Z,99.25
2023-01-10T05:55:56.309Z,101.50
2023-01-10T05:57:29.649Z,100.95
2023-01-10T05:59:14.081Z,100.85
2023-01-10T06:00:57.043Z,92.45
2023-01-10T06:02:30.392Z,97.32
2023-01-10T06:04:03.884Z,95.53
2023-01-10T06:05:37.306Z,105.82
2023-01-10T06:07:12.032Z,95.72
2023-01-10T06:08:45.162Z,105.20
2023-01-10T06:10:18.691Z,106.60
2023-01-10T06:11:53.445Z,114.75
2023-01-10T06:13:26.571Z,119.35
2023-01-10T06:14:59.960Z,139.30
2023-01-10T06:16:33.046Z,129.25
2023-01-10T06:18:06.428Z,131.20
2023-01-10T06:19:39.587Z,121.00
2023-01-10T06:21:13.229Z,112.45
2023-01-10T06:22:46.461Z,130.63
2023-01-10T06:24:19.821Z,133.30
2023-01-10T06:25:52.968Z,115.05
2023-01-10T06:27:27.563Z,112.15
2023-01-10T06:29:00.857Z,100.90
2023-01-10T06:30:35.333Z,93.00
2023-01-10T06:32:08.459Z,98.60
2023-01-10T06:33:41.791Z,90.95
2023-01-10T06:35:15.013Z,90.90
2023-01-10T06:36:48.428Z,90.85
2023-01-10T06:38:21.634Z,97.32
2023-01-10T06:39:54.876Z,99.25
2023-01-10T06:41:28.037Z,111.95
2023-01-10T06:43:02.634Z,101.50
2023-01-10T06:44:35.843Z,115.07
2023-01-10T06:46:10.305Z,133.50
2023-01-10T06:47:43.738Z,142.02
2023-01-10T06:49:17.082Z,132.25
2023-01-10T06:50:51.467Z,130.57
2023-01-10T06:52:24.879Z,138.48
2023-01-10T06:53:57.988Z,131.88
2023-01-10T06:55:31.833Z,150.48
2023-01-10T06:57:05.911Z,173.57
2023-01-10T06:58:41.052Z,163.85
2023-01-10T07:00:15.249Z,156.48
2023-01-10T07:01:48.794Z,160.07
2023-01-10T07:03:22.226Z,144.05
2023-01-10T07:04:55.616Z,147.30
2023-01-10T07:06:28.802Z,152.23
2023-01-10T07:08:02.363Z,172.60
2023-01-10T07:09:35.577Z,160.75
2023-01-10T07:11:09.548Z,169.50
2023-01-10T07:12:42.689Z,164.45
2023-01-10T07:14:17.479Z,165.80
2023-01-10T07:15:50.700Z,159.48
2023-01-10T07:17:24.012Z,130.68
2023-01-10T07:18:58.343Z,114.40
2023-01-10T07:20:31.684Z,114.03
2023-01-10T07:22:04.863Z,111.25
2023-01-10T07:23:38.736Z,120.50
2023-01-10T07:25:12.094Z,113.70
2023-01-10T07:26:45.212Z,113.40
2023-01-10T07:28:18.523Z,104.97
2023-01-10T07:29:53.296Z,98.55
2023-01-10T07:31:26.491Z,97.22
2023-01-10T07:33:01.353Z,95.30
2023-01-10T07:34:34.467Z,81.00
2023-01-10T07:36:08.400Z,84.13
2023-01-10T07:37:41.533Z,73.35
2023-01-10T07:39:15.041Z,76.68
2023-01-10T07:40:48.183Z,70.97
2023-01-10T07:42:21.399Z,68.25
2023-01-10T07:43:54.522Z,64.15
2023-01-10T07:45:31.591Z,60.47
2023-01-10T07:47:05.142Z,65.07
2023-01-10T07:48:38.567Z,65.82
2023-01-10T07:50:12.137Z,65.72
2023-01-10T07:51:45.489Z,81.95
2023-01-10T07:53:18.597Z,157.20
2023-01-10T07:54:52.440Z,184.68
2023-01-10T07:56:26.137Z,176.32
2023-01-10T07:57:59.276Z,108.13
2023-01-10T07:59:32.514Z,108.03
2023-01-10T08:01:08.108Z,89.72
2023-01-10T08:02:41.307Z,97.60
2023-01-10T08:04:14.530Z,101.18
2023-01-10T08:05:47.727Z,103.60
2023-01-10T08:07:21.234Z,100.75
2023-01-10T08:08:54.349Z,103.13
2023-01-10T08:10:28.171Z,100.03
2023-01-10T08:12:01.321Z,93.05
2023-01-10T08:13:34.734Z,92.18
2023-01-10T08:15:08.908Z,101.32
2023-01-10T08:16:43.575Z,106.07
2023-01-10T08:18:16.769Z,103.43
2023-01-10T08:19:50.165Z,107.03
2023-01-10T08:21:23.273Z,112.88
2023-01-10T08:22:58.519Z,107.22
2023-01-10T08:24:31.680Z,111.93
2023-01-10T08:26:05.947Z,116.72
2023-01-10T08:27:39.305Z,114.05
2023-01-10T08:29:12.561Z,127.65
2023-01-10T08:30:46.276Z,129.13
2023-01-10T08:32:21.194Z,151.90
2023-01-10T08:33:54.411Z,135.48
2023-01-10T08:35:27.555Z,138.63
2023-01-10T08:37:00.726Z,161.02
2023-01-10T08:38:34.713Z,162.43
2023-01-10T08:40:09.445Z,159.05
2023-01-10T08:41:42.799Z,150.10
2023-01-10T08:43:16.308Z,147.70
2023-01-10T08:44:50.152Z,153.55
2023-01-10T08:46:23.305Z,166.93
2023-01-10T08:47:58.231Z,137.90
2023-01-10T08:49:31.334Z,136.13
2023-01-10T08:51:09.119Z,155.77
2023-01-10T08:52:42.339Z,172.27
2023-01-10T08:54:15.955Z,152.38
2023-01-10T08:55:50.141Z,132.55
2023-01-10T08:57:23.477Z,134.52
2023-01-10T08:58:56.703Z,130.25
2023-01-10T09:00:30.052Z,123.75
2023-01-10T09:02:05.010Z,121.95
2023-01-10T09:03:40.004Z,120.72
2023-01-10T09:05:26.274Z,135.57
2023-01-10T09:07:00.251Z,143.40
2023-01-10T09:08:33.681Z,131.00
2023-01-10T09:10:07.954Z,129.38
2023-01-10T09:11:42.005Z,131.07
2023-01-10T09:13:14.406Z,135.82
2023-01-10T09:14:47.645Z,142.40
2023-01-10T09:16:21.012Z,140.40
2023-01-10T09:17:55.372Z,121.63
2023-01-10T09:19:30.185Z,122.65
2023-01-10T09:21:03.988Z,111.22
2023-01-10T09:22:37.647Z,118.15
2023-01-10T09:24:11.328Z,128.82
2023-01-10T09:25:45.141Z,124.40
2023-01-10T09:27:18.681Z,121.10
2023-01-10T09:28:51.850Z,121.80
2023-01-10T09:30:25.164Z,124.68
2023-01-10T09:31:58.238Z,130.55
2023-01-10T09:33:45.328Z,140.10
2023-01-10T09:35:21.398Z,135.70
2023-01-10T09:36:55.934Z,124.22
2023-01-10T09:38:29.134Z,131.07
2023-01-10T09:40:02.480Z,128.23
2023-01-10T09:42:16.011Z,141.70
2023-01-10T09:44:03.097Z,141.32
2023-01-10T09:45:42.481Z,135.07
2023-01-10T09:47:23.472Z,121.47
2023-01-10T09:49:05.086Z,105.13
2023-01-10T09:50:48.178Z,124.53
2023-01-10T09:52:24.884Z,138.50
2023-01-10T09:54:11.319Z,138.73
2023-01-10T09:55:51.259Z,112.32
2023-01-10T09:57:25.448Z,128.70
2023-01-10T09:59:00.035Z,128.93
2023-01-10T10:00:40.282Z,124.38
2023-01-10T10:02:25.109Z,137.93
2023-01-10T10:04:06.264Z,143.15
2023-01-10T10:05:40.842Z,142.02
2023-01-10T10:07:17.839Z,122.75
2023-01-10T10:08:52.215Z,117.43
2023-01-10T10:10:27.282Z,103.00
2023-01-10T10:12:23.137Z,108.75
2023-01-10T10:14:06.309Z,108.00
2023-01-10T10:15:50.569Z,119.60
2023-01-10T10:17:37.862Z,122.13
2023-01-10T10:19:21.283Z,142.85
2023-01-10T10:21:02.949Z,170.35
2023-01-10T10:22:44.911Z,156.73
2023-01-10T10:24:40.449Z,172.50
2023-01-10T10:26:19.882Z,158.23
2023-01-10T10:28:07.601Z,138.98
2023-01-10T10:30:11.158Z,160.55
2023-01-10T10:32:05.654Z,135.15
2023-01-10T10:33:50.933Z,133.90
2023-01-10T10:35:28.870Z,145.80
2023-01-10T10:37:09.581Z,136.55
2023-01-10T10:38:46.712Z,140.23
2023-01-10T10:40:22.933Z,138.65
2023-01-10T10:41:58.002Z,138.88
2023-01-10T10:43:34.364Z,161.57
2023-01-10T10:45:16.548Z,163.90
2023-01-10T10:46:49.753Z,173.32
2023-01-10T10:48:26.574Z,161.68
2023-01-10T10:50:08.460Z,146.90
2023-01-10T10:51:47.949Z,140.45
2023-01-10T10:53:22.651Z,247.43
2023-01-10T10:54:56.412Z,212.02
2023-01-10T10:56:30.905Z,174.60
2023-01-10T10:58:05.787Z,174.07
2023-01-10T10:59:39.449Z,141.43
2023-01-10T11:01:15.266Z,149.57
2023-01-10T11:02:54.170Z,173.35
2023-01-10T11:04:28.196Z,174.27
2023-01-10T11:06:02.891Z,199.07
2023-01-10T11:07:38.803Z,175.43
2023-01-10T11:09:14.254Z,165.35
2023-01-10T11:10:50.053Z,135.50
2023-01-10T11:12:36.375Z,158.10
2023-01-10T11:14:10.679Z,161.27
2023-01-10T11:15:46.653Z,165.65
2023-01-10T11:17:22.744Z,175.55
2023-01-10T11:19:17.612Z,181.45
2023-01-10T11:20:58.073Z,167.10
2023-01-10T11:22:34.838Z,158.32
2023-01-10T11:24:27.446Z,175.27
2023-01-10T11:26:00.753Z,170.02
2023-01-10T11:27:47.691Z,180.48
2023-01-10T11:29:26.658Z,167.77
2023-01-10T11:31:01.157Z,185.73
2023-01-10T11:32:38.754Z,202.63
2023-01-10T11:34:23.782Z,212.93
2023-01-10T11:35:59.096Z,209.00
2023-01-10T11:37:34.037Z,210.27
2023-01-10T11:39:07.140Z,199.30
2023-01-10T11:40:55.798Z,212.85
2023-01-10T11:42:30.922Z,210.52
2023-01-10T11:44:18.529Z,211.05
2023-01-10T11:45:56.255Z,200.65
2023-01-10T11:47:29.958Z,209.05
2023-01-10T11:49:08.371Z,206.88
2023-01-10T11:50:46.782Z,235.52
2023-01-10T11:52:24.419Z,220.50
2023-01-10T11:54:00.995Z,218.20
2023-01-10T11:55:37.782Z,89.00
2023-01-10T11:57:23.687Z,76.95
2023-01-10T11:59:00.244Z,79.03
2023-01-10T12:00:40.988Z,55.20
2023-01-10T12:02:24.502Z,54.97
2023-01-10T12:03:58.168Z,41.03
2023-01-10T12:05:32.142Z,43.22
2023-01-10T12:07:10.850Z,42.58
2023-01-10T12:08:45.078Z,38.35
2023-01-10T12:10:22.217Z,33.50
2023-01-10T12:12:03.701Z,33.35
2023-01-10T12:13:49.215Z,31.15
2023-01-10T12:15:25.272Z,36.33
2023-01-10T12:17:02.461Z,31.65
2023-01-10T12:18:35.801Z,38.35
2023-01-10T12:20:15.948Z,37.85
2023-01-10T12:21:50.261Z,29.70
2023-01-10T12:23:26.386Z,25.17
2023-01-10T12:25:04.369Z,31.80
2023-01-10T12:26:37.901Z,24.08
2023-01-10T12:28:18.841Z,28.80
2023-01-10T12:29:59.888Z,29.27
2023-01-10T12:31:34.852Z,29.50
2023-01-10T12:33:14.762Z,31.85
2023-01-10T12:34:54.431Z,29.35
2023-01-10T12:36:45.567Z,28.90
2023-01-10T12:38:42.484Z,33.20
2023-01-10T12:40:20.853Z,26.35
2023-01-10T12:42:21.023Z,31.05
2023-01-10T12:44:11.989Z,36.53
2023-01-10T12:45:52.445Z,23.55
2023-01-10T12:47:33.386Z,19.70
2023-01-10T12:49:16.235Z,25.42
2023-01-10T12:50:55.493Z,27.65
2023-01-10T12:52:40.948Z,23.80
2023-01-10T12:54:20.295Z,20.13
2023-01-10T12:55:58.013Z,24.95
2023-01-10T12:57:35.899Z,19.20
2023-01-10T12:59:36.055Z,18.05
2023-01-10T13:01:15.982Z,20.63
2023-01-10T13:02:52.302Z,20.33
2023-01-10T13:04:27.619Z,19.58
2023-01-10T13:06:01.709Z,18.92
2023-01-10T13:07:36.865Z,13.32
2023-01-10T13:09:15.071Z,16.02
2023-01-10T13:10:51.195Z,21.02
2023-01-10T13:12:34.236Z,16.15
2023-01-10T13:14:13.372Z,20.10
2023-01-10T13:15:53.609Z,14.15
2023-01-10T13:17:36.009Z,16.00
2023-01-10T13:19:26.389Z,15.48
2023-01-10T13:21:08.663Z,12.57
2023-01-10T13:22:41.827Z,15.85
2023-01-10T13:24:23.395Z,14.93
2023-01-10T13:25:59.928Z,16.75
2023-01-10T13:27:35.917Z,21.85
2023-01-10T13:29:13.273Z,15.60
2023-01-10T13:30:53.665Z,12.48
2023-01-10T13:32:31.245Z,18.77
2023-01-10T13:34:09.060Z,19.90
2023-01-10T13:35:44.908Z,11.95
2023-01-10T13:37:24.776Z,17.70
2023-01-10T13:39:01.581Z,13.68
2023-01-10T13:40:34.870Z,18.27
2023-01-10T13:42:49.252Z,12.82
2023-01-10T13:44:22.476Z,25.00
2023-01-10T13:46:28.605Z,14.68
2023-01-10T13:48:28.739Z,14.02
2023-01-10T13:50:02.060Z,18.05
2023-01-10T13:51:36.275Z,19.58
2023-01-10T13:53:58.161Z,15.88
2023-01-10T13:55:35.407Z,10.27
2023-01-10T13:57:56.204Z,10.05
2023-01-10T14:00:26.175Z,9.13
2023-01-10T14:02:20.342Z,6.68
2023-01-10T14:03:58.286Z,11.15
2023-01-10T14:05:31.718Z,21.98
2023-01-10T14:07:07.593Z,9.40
2023-01-10T14:08:45.503Z,15.65
2023-01-10T14:10:25.268Z,9.05
2023-01-10T14:12:00.959Z,14.40
2023-01-10T14:13:34.472Z,5.50
2023-01-10T14:15:22.048Z,11.13
2023-01-10T14:16:56.978Z,8.43
2023-01-10T14:18:34.866Z,16.58
2023-01-10T14:20:23.279Z,13.23
2023-01-10T14:21:59.129Z,32.70
2023-01-10T14:23:37.574Z,21.25
2023-01-10T14:25:20.578Z,20.10
2023-01-10T14:26:57.449Z,18.75
2023-01-10T14:28:34.241Z,5.47
2023-01-10T14:30:08.896Z,13.20
2023-01-10T14:31:47.261Z,9.05
2023-01-10T14:33:23.059Z,12.30
2023-01-10T14:34:56.367Z,20.88
2023-01-10T14:36:34.355Z,27.00
2023-01-10T14:38:15.659Z,38.13
2023-01-10T14:39:49.646Z,17.40
2023-01-10T14:41:27.901Z,5.55
2023-01-10T14:43:04.942Z,23.17
2023-01-10T14:44:45.844Z,6.05
2023-01-10T14:46:24.176Z,6.10
2023-01-10T14:47:57.316Z,7.53
2023-01-10T14:49:32.830Z,11.05
2023-01-10T14:51:21.358Z,6.30
2023-01-10T14:52:57.474Z,6.65
2023-01-10T14:54:30.637Z,12.77
2023-01-10T14:56:03.812Z,8.25
2023-01-10T14:57:36.925Z,6.35
2023-01-10T14:59:29.857Z,7.63
2023-01-10T15:01:03.105Z,8.30
2023-01-10T15:02:39.808Z,11.43
2023-01-10T15:04:17.077Z,15.48
2023-01-10T15:05:53.493Z,65.63
2023-01-10T15:07:28.572Z,34.05
2023-01-10T15:09:03.820Z,47.33
2023-01-10T15:10:41.982Z,32.72
2023-01-10T15:12:17.312Z,22.52
2023-01-10T15:13:54.986Z,26.58
2023-01-10T15:15:33.360Z,31.45
2023-01-10T15:17:09.915Z,33.75
2023-01-10T15:18:47.095Z,56.88
2023-01-10T15:20:22.056Z,35.45
2023-01-10T15:21:55.285Z,45.78
2023-01-10T15:23:35.899Z,27.33
2023-01-10T15:25:30.186Z,21.90
2023-01-10T15:27:05.520Z,22.90
2023-01-10T15:28:39.345Z,17.50
2023-01-10T15:30:14.453Z,35.88
2023-01-10T15:31:48.132Z,27.95
2023-01-10T15:33:29.639Z,28.42
2023-01-10T15:35:03.267Z,40.00
2023-01-10T15:36:37.378Z,29.05
2023-01-10T15:38:19.204Z,27.63
2023-01-10T15:39:54.231Z,46.40
2023-01-10T15:41:29.337Z,61.22
2023-01-10T15:43:13.992Z,120.30
2023-01-10T15:44:52.623Z,76.72
2023-01-10T15:46:27.680Z,80.28
2023-01-10T15:48:04.209Z,41.83
2023-01-10T15:49:41.558Z,47.78
2023-01-10T15:51:16.700Z,22.98
2023-01-10T15:52:55.420Z,28.63
2023-01-10T15:54:33.849Z,26.70
2023-01-10T15:56:13.910Z,29.75
2023-01-10T15:57:53.302Z,29.88
2023-01-10T15:59:32.844Z,30.38
2023-01-10T16:01:06.687Z,22.92
2023-01-10T16:02:40.754Z,31.77
2023-01-10T16:04:15.619Z,28.20
2023-01-10T16:05:54.805Z,40.70
2023-01-10T16:07:32.124Z,47.05
2023-01-10T16:09:08.628Z,52.90
2023-01-10T16:10:42.115Z,55.75
2023-01-10T16:12:43.715Z,58.15
2023-01-10T16:14:20.184Z,33.92
2023-01-10T16:15:55.158Z,21.15
2023-01-10T16:17:28.475Z,25.45
2023-01-10T16:19:02.914Z,23.90
2023-01-10T16:20:39.092Z,23.33
2023-01-10T16:22:19.659Z,26.75
2023-01-10T16:23:54.034Z,55.22
2023-01-10T16:25:33.781Z,67.53
2023-01-10T16:27:07.770Z,44.97
2023-01-10T16:28:45.968Z,65.80
2023-01-10T16:30:25.839Z,83.35
2023-01-10T16:31:59.615Z,44.92
2023-01-10T16:33:33.039Z,57.95
2023-01-10T16:35:07.046Z,44.60
2023-01-10T16:36:44.357Z,56.85
2023-01-10T16:38:18.407Z,41.53
2023-01-10T16:39:51.550Z,38.60
2023-01-10T16:41:42.791Z,26.35
2023-01-10T16:43:25.799Z,30.13
2023-01-10T16:44:58.923Z,29.92
2023-01-10T16:46:33.717Z,18.88
2023-01-10T16:48:08.151Z,18.20
2023-01-10T16:49:45.524Z,28.35
2023-01-10T16:51:21.189Z,28.17
2023-01-10T16:52:54.482Z,33.35
2023-01-10T16:54:28.937Z,37.15
2023-01-10T16:56:02.513Z,54.90
2023-01-10T16:57:37.075Z,44.13
2023-01-10T16:59:10.561Z,37.85
2023-01-10T17:00:45.828Z,44.35
2023-01-10T17:02:21.952Z,34.83
2023-01-10T17:03:55.800Z,24.45
2023-01-10T17:05:30.868Z,29.80
2023-01-10T17:07:04.330Z,32.88
2023-01-10T17:08:38.032Z,37.42
2023-01-10T17:10:14.164Z,37.70
2023-01-10T17:11:56.987Z,53.88
2023-01-10T17:13:33.694Z,47.53
2023-01-10T17:15:09.360Z,44.92
2023-01-10T17:16:42.993Z,42.20
2023-01-10T17:18:17.955Z,37.17
2023-01-10T17:19:51.744Z,35.47
2023-01-10T17:21:25.229Z,39.55
2023-01-10T17:22:59.180Z,37.22
2023-01-10T17:24:32.922Z,41.95
2023-01-10T17:26:07.362Z,21.38
2023-01-10T17:27:43.289Z,54.92
2023-01-10T17:29:16.652Z,59.47
2023-01-10T17:30:50.496Z,40.83
2023-01-10T17:32:23.962Z,37.38
2023-01-10T17:33:58.835Z,45.83
2023-01-10T17:35:32.783Z,49.70
2023-01-10T17:37:06.802Z,44.92
2023-01-10T17:38:41.153Z,39.17
2023-01-10T17:40:14.646Z,36.30
2023-01-10T17:41:47.870Z,32.95
2023-01-10T17:43:22.040Z,34.95
2023-01-10T17:44:55.456Z,46.88
2023-01-10T17:46:28.833Z,46.80
2023-01-10T17:48:02.499Z,50.80
2023-01-10T17:49:37.544Z,49.05
2023-01-10T17:51:13.561Z,51.28
2023-01-10T17:52:49.913Z,47.25
2023-01-10T17:54:23.444Z,46.53
2023-01-10T17:55:58.013Z,41.65
2023-01-10T17:57:31.658Z,38.92
2023-01-10T17:59:07.765Z,36.38
2023-01-10T18:00:41.305Z,42.40
2023-01-10T18:02:18.237Z,43.90
2023-01-10T18:03:52.980Z,43.00
2023-01-10T18:05:27.844Z,39.55
2023-01-10T18:07:01.386Z,42.00
2023-01-10T18:08:34.839Z,49.60
2023-01-10T18:10:12.994Z,40.75
2023-01-10T18:11:46.303Z,45.40
2023-01-10T18:13:24.408Z,40.67
2023-01-10T18:14:57.679Z,46.20
2023-01-10T18:16:31.483Z,47.45
2023-01-10T18:18:04.889Z,46.90
2023-01-10T18:19:39.363Z,43.38
2023-01-10T18:21:19.719Z,32.97
2023-01-10T18:23:11.577Z,34.45
2023-01-10T18:24:47.397Z,65.22
2023-01-10T18:26:21.101Z,24.38
2023-01-10T18:27:56.636Z,22.77
2023-01-10T18:29:30.256Z,20.58
2023-01-10T18:31:04.718Z,36.97
2023-01-10T18:32:38.392Z,31.88
2023-01-10T18:34:11.705Z,37.30
2023-01-10T18:35:47.342Z,49.70
2023-01-10T18:37:22.572Z,62.75
2023-01-10T18:38:56.389Z,57.85
2023-01-10T18:40:29.853Z,45.65
2023-01-10T18:42:04.043Z,42.70
2023-01-10T18:43:37.589Z,30.33
2023-01-10T18:45:11.750Z,33.33
2023-01-10T18:46:44.936Z,28.40
2023-01-10T18:48:20.482Z,31.20
2023-01-10T18:49:53.999Z,30.65
2023-01-10T18:51:27.312Z,34.88
2023-01-10T18:53:02.005Z,40.00
2023-01-10T18:54:35.949Z,16.75
2023-01-10T18:56:10.117Z,31.45
2023-01-10T18:57:43.384Z,25.63
2023-01-10T18:59:18.184Z,30.95
2023-01-10T19:00:53.071Z,32.65
2023-01-10T19:02:26.423Z,53.42
2023-01-10T19:04:00.335Z,36.90
2023-01-10T19:05:33.757Z,42.45
2023-01-10T19:07:07.648Z,48.70
2023-01-10T19:08:42.891Z,65.57
2023-01-10T19:10:19.243Z,41.88
2023-01-10T19:11:52.630Z,39.10
2023-01-10T19:13:26.264Z,23.33
2023-01-10T19:15:00.496Z,15.77
2023-01-10T19:16:34.073Z,19.15
2023-01-10T19:18:07.622Z,15.60
2023-01-10T19:19:41.860Z,38.75
2023-01-10T19:21:16.363Z,23.13
2023-01-10T19:22:49.643Z,20.48
2023-01-10T19:24:27.631Z,26.45
2023-01-10T19:26:01.520Z,17.02
2023-01-10T19:27:34.997Z,30.25
2023-01-10T19:29:08.169Z,48.55
2023-01-10T19:30:41.684Z,37.17
2023-01-10T19:32:15.378Z,37.38
2023-01-10T19:33:50.679Z,54.47
2023-01-10T19:35:24.058Z,44.83
2023-01-10T19:36:57.531Z,58.97
2023-01-10T19:38:31.225Z,51.30
2023-01-10T19:40:07.832Z,24.70
2023-01-10T19:41:42.049Z,22.23
2023-01-10T19:43:15.350Z,20.27
2023-01-10T19:44:49.037Z,45.60
2023-01-10T19:46:22.343Z,73.88
2023-01-10T19:47:55.683Z,92.97
2023-01-10T19:49:34.979Z,76.85
2023-01-10T19:51:09.910Z,68.22
2023-01-10T19:52:44.010Z,73.72
2023-01-10T19:54:17.470Z,72.13
2023-01-10T19:56:01.220Z,40.55
2023-01-10T19:57:35.256Z,29.55
2023-01-10T19:59:08.755Z,40.38
2023-01-10T20:00:42.388Z,36.65
2023-01-10T20:02:15.889Z,37.05
2023-01-10T20:03:50.409Z,35.85
2023-01-10T20:05:23.982Z,57.53
2023-01-10T20:06:57.369Z,53.67
2023-01-10T20:08:30.583Z,38.95
2023-01-10T20:10:04.233Z,57.92
2023-01-10T20:11:40.475Z,39.90
2023-01-10T20:13:13.836Z,48.38
2023-01-10T20:14:47.211Z,57.30
2023-01-10T20:16:22.666Z,53.95
2023-01-10T20:17:56.015Z,92.93
2023-01-10T20:19:29.172Z,52.42
2023-01-10T20:21:06.844Z,54.35
2023-01-10T20:22:40.836Z,52.47
2023-01-10T20:24:17.739Z,49.45
2023-01-10T20:25:58.124Z,49.25
2023-01-10T20:27:32.794Z,44.22
2023-01-10T20:29:07.032Z,46.75
2023-01-10T20:30:40.190Z,51.20
2023-01-10T20:32:13.954Z,50.50
2023-01-10T20:33:47.328Z,50.28
2023-01-10T20:35:22.215Z,50.30
2023-01-10T20:36:55.393Z,61.72
2023-01-10T20:38:29.773Z,81.68